Terminal Aerodrome Forecast
Issued by NWS Springfield, MO

Home | Current Version | Previous Version | Text Only | Print | Product List | Glossary On
Versions: 1 2 3 4 5 6 7 8 9 10 11 12 13 14 15 16 17 18 19 20 21 22 23 24 25 26 27 28 29
000
FTUS43 KSGF 021900 AAA
TAFSGF
TAF AMD
KSGF 021957Z 0220/0318 12013KT P6SM OVC035
     FM022300 15014KT P6SM OVC025
     FM030800 16012G22KT 5SM BR OVC020
      TEMPO 0309/0312 2SM -RA BR OVC008
     FM031200 17013KT 2SM -RA BR OVC006=

USA.gov is the U.S. government's official web portal to all federal, state and local government web resources and services.